This is the latest recevied weather packets stored in our database for station/object JF7BTK-10. If no packets are shown the sender has not sent any weather packets the latest 10 day(s).
| Time | Temp. | Humidity | Pressure | Rain* | Wind** | Luminosity | Snow |
|---|---|---|---|---|---|---|---|
| 1787442123 | 27.78° C | 65% | 1011.7 hPa | 0 mm | - | - | - |
| 1787441223 | 27.22° C | 75% | 1011.7 hPa | 0 mm | - | - | - |
| 1787440322 | 25.56° C | 84% | 1011.9 hPa | 0 mm | - | - | - |
| 1787439422 | 24.44° C | 81% | 1011.8 hPa | 0 mm | - | - | - |
| 1787438521 | 26.67° C | 83% | 1011.8 hPa | 0 mm | - | - | - |
| 1787437623 | 23.89° C | 97% | 1011.9 hPa | 0 mm | - | - | - |
| 1787436722 | 22.22° C | 99% | 1012 hPa | 0 mm | - | - | - |
| 1787435822 | 22.22° C | 99% | 1012.2 hPa | 0 mm | - | - | - |
| 1787434922 | 21.67° C | 99% | 1012.2 hPa | 0 mm | - | - | - |
| 1787434023 | 21.11° C | 99% | 1012.1 hPa | 0 mm | - | - | - |
| 1787433123 | 21.11° C | 99% | 1011.8 hPa | 0 mm | - | - | - |
| 1787432222 | 20.56° C | 99% | 1011.8 hPa | 0 mm | - | - | - |
| 1787431322 | 20° C | 99% | 1011.9 hPa | 0 mm | - | - | - |
| 1787430422 | 20° C | 99% | 1011.6 hPa | 0 mm | - | - | - |
| 1787429523 | 19.44° C | 99% | 1011.7 hPa | 0 mm | - | - | - |
| 1787428623 | 19.44° C | 99% | 1011.8 hPa | 0 mm | - | - | - |
| 1787427723 | 19.44° C | 98% | 1011.8 hPa | 0 mm | - | - | - |
| 1787426822 | 19.44° C | 97% | 1011.5 hPa | 0 mm | - | - | - |
| 1787425922 | 19.44° C | 96% | 1011.4 hPa | 0 mm | - | - | - |
| 1787425022 | 19.44° C | 95% | 1011.4 hPa | 0 mm | - | - | - |
| 1787424122 | 19.44° C | 94% | 1011.6 hPa | 0 mm | - | - | - |
| 1787423222 | 20° C | 94% | 1011.6 hPa | 0 mm | - | - | - |
| 1787422322 | 20.56° C | 94% | 1011.4 hPa | 0 mm | - | - | - |
| 1787421423 | 20.56° C | 94% | 1011.4 hPa | 0 mm | - | - | - |
| 1787420523 | 20.56° C | 94% | 1011.5 hPa | 0 mm | - | - | - |
* Rain latest hour (hover to see other rain measurements)
** Current wind speed in m/s (hover to see current wind gust speed)